Station: Smithton  

  Atmospheric Gas Attenuation - ITU Rec 676-11   ----------------- dB/100km -----------------
Date Time Temp RH % AH g/m3 Dew Point Wind Direction Speed kph Gust kph Barometer mB Rainfall Since 9am 24GHz 47GHz 76GHz 122GHz 134GHz 241GHz
10/05 14:20 17.7 67 10.11 11.5 19 22 1030.3 0 22.6 27.8 44.6 117.1 114.6 395.5
10/05 14:10 18.1 67 10.35 11.9 17 22 1030.3 0 23.1 28.1 45.4 119.1 117.2 404.6
10/05 14:00 18 65 9.98 11.3 19 24 1030.3 0 22.3 27.5 43.9 115.2 112.4 387.9
10/05 13:50 18.2 65 10.1 11.5 19 24 1030.2 0 22.5 27.6 44.3 116.2 113.7 392.5
10/05 13:40 17.9 69 10.53 12.1 15 17 1030.2 0 23.5 28.4 46.2 121.3 119.9 414.1
10/05 13:30 17.8 69 10.47 12 17 22 1030.2 0 23.3 28.4 46.0 120.8 119.3 411.8
10/05 13:20 18 67 10.29 11.8 15 19 1030.2 0 22.9 28.0 45.2 118.6 116.5 402.3
10/05 13:10 18.3 61 9.54 10.7 19 20 1030.2 0 21.3 26.7 42.0 110.1 106.2 366.3
10/05 13:00 18.1 64 9.89 11.2 17 20 1030.2 0 22.1 27.3 43.5 114.1 111.1 383.2
10/05 12:50 17.9 65 9.92 11.2 17 20 1030.3 0 22.2 27.4 43.7 114.7 111.8 385.6
10/05 12:40 18.2 65 10.1 11.5 15 17 1030.3 0 22.5 27.6 44.3 116.2 113.7 392.5
10/05 12:30 18.2 64 9.95 11.3 15 19 1030.4 0 22.2 27.4 43.7 114.6 111.7 385.6
10/05 12:20 18 64 9.83 11.1 17 17 1030.4 0 22.0 27.3 43.3 113.6 110.4 381.0
10/05 12:10 18.2 63 9.79 11 13 13 1030.5 0 21.9 27.2 43.1 112.9 109.6 378.3
10/05 12:00 18.4 64 10.07 11.5 9 15 1030.6 0 22.5 27.5 44.1 115.7 113.1 390.2
10/05 11:50 18 67 10.29 11.8 9 11 1030.6 0 22.9 28.0 45.2 118.6 116.6 402.4
10/05 11:40 17.6 70 10.5 12.1 6 7 1030.7 0 23.4 28.5 46.3 121.5 120.0 414.4
10/05 11:30 17 71 10.27 11.7 7 9 1030.7 0 23.0 28.3 45.7 119.9 117.8 406.7
10/05 11:20 16.9 74 10.64 12.2 6 7 1030.8 0 23.7 29.0 47.3 124.2 123.0 424.9
10/05 11:10 16.2 75 10.34 11.8 7 9 1030.7 0 23.1 28.7 46.4 121.9 120.0 414.2
10/05 11:00 15.9 77 10.43 11.9 9 11 1030.7 0 23.4 28.9 47.0 123.4 121.7 420.2
10/05 10:50 15.5 79 10.44 11.9 9 11 1030.6 0 23.4 29.1 47.3 124.2 122.5 422.8
10/05 10:40 14.9 79 10.07 11.3 11 11 1030.7 0 22.6 28.7 46.1 120.9 118.3 408.0
10/05 10:30 14.7 80 10.07 11.3 9 11 1030.6 0 22.7 28.7 46.2 121.2 118.6 409.1
10/05 10:20 14.5 82 10.2 11.5 9 9 1030.5 0 22.9 29.0 46.8 123.0 120.7 416.4
10/05 10:10 14 82 9.89 11 13 15 1030.5 0 22.3 28.6 45.8 120.3 117.2 403.9
10/05 10:00 13.7 83 9.83 10.9 15 19 1030.5 0 22.2 28.6 45.7 120.1 116.8 402.6
10/05 09:50 13.4 85 9.88 10.9 15 17 1030.6 0 22.3 28.8 46.1 121.1 117.9 406.6
10/05 09:40 13.1 87 9.93 11 11 13 1030.5 0 22.4 29.0 46.5 122.1 119.1 410.6
10/05 09:30 12.8 88 9.86 10.9 17 22 1030.4 0 22.3 29.0 46.4 121.8 118.6 408.7
10/05 09:20 12.7 90 10.02 11.1 15 17 1030.3 0 22.7 29.3 47.1 123.8 121.0 417.2
10/05 09:10 12.2 91 9.82 10.8 19 20 1030.3 0 22.3 29.1 46.6 122.3 118.9 409.9
10/05 09:00 11.9 93 9.85 10.8 11 13 1030.3 0 22.3 29.3 46.9 123.1 119.8 412.9
10/05 08:50 11.3 94 9.59 10.4 11 11 1030.2 0 21.8 29.0 46.1 121.0 117.0 403.1
10/05 08:40 10.8 94 9.29 9.9 11 13 1030.1 0 21.2 28.6 45.1 118.3 113.5 390.6
10/05 08:30 10.2 94 8.95 9.3 7 9 1030 0 20.5 28.2 43.9 115.2 109.5 376.6
10/05 08:20 9.9 94 8.78 9 11 13 1029.8 0 20.2 28.0 43.4 113.7 107.5 369.5
10/05 08:10 9.4 94 8.5 8.5 13 15 1029.6 0 19.6 27.7 42.4 111.2 104.2 357.9
10/05 08:00 9 94 8.29 8.1 15 19 1029.3 0 19.1 27.4 41.7 109.3 101.7 349.3
10/05 07:50 8.7 94 8.13 7.8 17 17 1029.1 0 18.8 27.2 41.2 107.9 99.8 342.7
10/05 07:40 8.4 94 7.98 7.5 15 17 1029.2 0 18.5 27.1 40.7 106.6 98.1 336.6
10/05 07:30 8.2 94 7.88 7.3 15 17 1029.1 0 18.3 27.0 40.4 105.7 97.0 332.5
10/05 07:20 7.9 94 7.72 7 15 15 1028.9 0 18.0 26.8 39.8 104.3 95.1 325.9
10/05 07:10 8.1 93 7.74 7 13 15 1028.8 0 18.0 26.8 39.8 104.2 95.1 326.0
10/05 07:00 8.4 94 7.98 7.5 15 19 1028.7 0 18.5 27.1 40.7 106.5 98.1 336.5
10/05 06:50 8.3 94 7.93 7.4 17 17 1028.5 0 18.4 27.0 40.5 106.1 97.5 334.4
10/05 06:40 8.3 94 7.93 7.4 19 19 1028.5 0 18.4 27.0 40.5 106.1 97.5 334.4
10/05 06:30 8.4 94 7.98 7.5 19 20 1028.5 0 18.5 27.1 40.7 106.5 98.1 336.4
10/05 06:20 8.3 94 7.93 7.4 19 20 1028.5 0 18.4 27.0 40.5 106.1 97.5 334.4
10/05 06:10 8.1 93 7.74 7 17 17 1028.4 0 18.0 26.7 39.8 104.2 95.1 325.9
10/05 06:00 8.1 93 7.74 7 15 19 1028.3 0 18.0 26.7 39.8 104.1 95.1 325.9
10/05 05:50 8.3 93 7.84 7.2 15 15 1028.2 0 18.2 26.8 40.1 105.0 96.2 329.9
10/05 05:40 8.2 93 7.79 7.1 17 17 1028.1 0 18.1 26.8 39.9 104.6 95.6 327.9
10/05 05:30 8.5 93 7.94 7.4 15 17 1028 0 18.4 26.9 40.4 105.8 97.3 333.9
10/05 05:20 8.8 93 8.1 7.7 17 17 1027.9 0 18.7 27.1 41.0 107.2 99.2 340.4
10/05 05:10 8.8 92 8.01 7.6 17 19 1027.7 0 18.5 27.0 40.6 106.2 97.9 336.0
10/05 05:00 9.2 93 8.31 8.1 17 20 1027.6 0 19.2 27.3 41.6 109.1 101.6 348.9
10/05 04:50 9.4 93 8.41 8.3 19 24 1027.5 0 19.4 27.5 41.9 109.9 102.7 352.9
10/05 04:40 9.4 93 8.41 8.3 20 22 1027.4 0 19.4 27.4 41.9 109.9 102.7 352.9
10/05 04:30 8.9 93 8.15 7.8 19 20 1027.4 0 18.8 27.2 41.1 107.6 99.7 342.3
10/05 04:20 8.5 92 7.86 7.3 19 20 1027.4 0 18.2 26.8 40.1 104.9 96.2 329.8
10/05 04:10 8.9 92 8.06 7.7 19 20 1027.3 0 18.7 27.0 40.7 106.6 98.5 337.9
10/05 04:00 9.1 93 8.25 8 20 24 1027.2 0 19.1 27.3 41.4 108.5 100.9 346.3
10/05 03:50 9.1 93 8.25 8 22 22 1027.1 0 19.1 27.3 41.4 108.5 100.8 346.2
10/05 03:40 8.9 93 8.15 7.8 22 24 1027.2 0 18.8 27.1 41.1 107.6 99.7 342.2
10/05 03:30 8.5 93 7.94 7.4 19 20 1027.2 0 18.4 26.9 40.4 105.8 97.3 333.7
10/05 03:20 8.4 92 7.81 7.2 19 20 1027.2 0 18.1 26.7 39.9 104.4 95.6 327.7
10/05 03:10 8.4 91 7.72 7 19 19 1027.2 0 17.9 26.6 39.5 103.4 94.3 323.4
10/05 03:00 8.5 90 7.69 7 17 20 1027.3 0 17.9 26.5 39.3 102.9 93.8 321.5
10/05 02:50 8.6 91 7.82 7.2 17 17 1027.3 0 18.2 26.7 39.8 104.3 95.5 327.4
10/05 02:40 8.2 89 7.46 6.5 13 15 1027.3 0 17.4 26.2 38.5 100.8 91.0 311.6
10/05 02:30 8.6 89 7.65 6.9 9 13 1027.3 0 17.8 26.4 39.1 102.4 93.1 319.2
10/05 02:20 9 89 7.85 7.3 11 13 1027.2 0 18.2 26.6 39.8 104.1 95.4 327.2
10/05 02:10 9.1 89 7.9 7.4 13 13 1027.2 0 18.3 26.7 39.9 104.5 96.0 329.2
10/05 02:00 9.6 89 8.16 7.9 17 19 1027.1 0 18.8 26.9 40.8 106.7 98.9 339.6
10/05 01:50 9.8 88 8.17 7.9 17 19 1027 0 18.8 26.9 40.7 106.6 98.8 339.2
10/05 01:40 10.5 88 8.54 8.6 17 19 1026.9 0 19.6 27.3 41.9 109.8 103.0 354.1
10/05 01:30 10.6 88 8.59 8.7 17 26 1026.9 0 19.7 27.4 42.0 110.2 103.6 356.1
10/05 01:20 10.6 89 8.69 8.9 19 20 1026.9 0 19.9 27.5 42.5 111.3 105.0 360.9
10/05 01:10 10.6 90 8.79 9 20 22 1026.9 0 20.1 27.7 42.9 112.5 106.4 365.8
10/05 01:00 10.5 90 8.73 8.9 22 32 1026.8 0 20.0 27.6 42.7 111.9 105.7 363.3
10/05 00:50 10 89 8.36 8.3 19 20 1026.9 0 19.2 27.2 41.4 108.4 101.2 347.6
10/05 00:40 10.1 89 8.42 8.4 20 20 1026.8 0 19.4 27.2 41.6 109.0 101.9 350.0
10/05 00:30 10.3 89 8.53 8.6 17 20 1026.9 0 19.6 27.4 41.9 109.9 103.2 354.5
10/05 00:20 10.3 89 8.53 8.6 15 17 1026.9 0 19.6 27.4 41.9 109.9 103.2 354.5
10/05 00:10 10.3 90 8.62 8.7 19 20 1026.9 0 19.8 27.5 42.3 110.9 104.4 358.9
10/05 00:00 10.2 90 8.57 8.6 17 24 1027 0 19.7 27.5 42.2 110.5 103.9 356.9
09/05 23:50 10 89 8.36 8.3 13 15 1027.2 0 19.2 27.2 41.4 108.5 101.2 347.6
09/05 23:40 10.3 90 8.62 8.7 15 17 1027.1 0 19.8 27.5 42.3 111.0 104.4 359.0
09/05 23:30 10.2 91 8.66 8.8 22 28 1026.9 0 19.9 27.6 42.5 111.5 105.1 361.3
09/05 23:20 9.2 89 7.95 7.5 19 20 1027.2 0 18.4 26.7 40.1 104.9 96.5 331.2
09/05 23:10 9.7 90 8.3 8.1 19 20 1027.3 0 19.1 27.2 41.3 108.2 100.8 346.1
09/05 23:00 9.5 88 8.01 7.6 11 17 1027.4 0 18.5 26.7 40.2 105.2 97.0 332.9
09/05 22:50 9.9 88 8.22 8 9 9 1027.4 0 18.9 27.0 40.9 107.0 99.4 341.3
09/05 22:40 9.9 88 8.22 8 13 13 1027.4 0 18.9 27.0 40.9 107.0 99.4 341.3
09/05 22:30 10.1 88 8.32 8.2 17 20 1027.4 0 19.2 27.1 41.2 107.9 100.5 345.3
09/05 22:20 10.4 87 8.39 8.3 17 17 1027.4 0 19.3 27.1 41.3 108.3 101.1 347.4
09/05 22:10 10.7 88 8.65 8.8 17 20 1027.3 0 19.8 27.4 42.3 110.8 104.3 358.6
09/05 22:00 10.7 87 8.55 8.6 19 24 1027.3 0 19.6 27.3 41.8 109.6 102.9 353.8
09/05 21:50 11 87 8.71 8.9 22 24 1027.3 0 19.9 27.5 42.3 111.0 104.8 360.2

Last Refresh: 10-May-2026 13:57:39

Bureau of Meteorology